DAL2653 KLAX-KLAS
Flight info
| Callsign | DAL2653 |
|---|---|
| Flight time | 0h 42m |
| Altitude | 29000 |
| Route | ORCKA5 MISEN RNDRZ4 |
| Aircraft | A321/M-SDE3FGHIRWY/LB1 |
Departure
| Time | 2026-05-05 11:52 |
|---|---|
| Airport | Los Angeles International Airport (KLAX) |
Arrival
| Time | 2026-05-05 12:34 |
|---|---|
| Airport | Harry Reid International Airport (KLAS) |
| Time | Latitude | Longitude | Altitude | Speed | Heading |
|---|---|---|---|---|---|
| 2026-05-05 11:24 | 33.94672 | -118.40846 | 126 ft | 0 kts | 118° |
| 2026-05-05 11:37 | 33.94674 | -118.40851 | 122 ft | 3 kts | 118° |
| 2026-05-05 11:37 | 33.94686 | -118.40880 | 126 ft | 4 kts | 109° |
| 2026-05-05 11:37 | 33.94689 | -118.40906 | 132 ft | 4 kts | 50° |
| 2026-05-05 11:38 | 33.94686 | -118.40911 | 126 ft | 0 kts | 353° |
| 2026-05-05 11:41 | 33.94689 | -118.40911 | 121 ft | 1 kts | 353° |
| 2026-05-05 11:41 | 33.94699 | -118.40913 | 126 ft | 2 kts | 353° |
| 2026-05-05 11:42 | 33.94717 | -118.40917 | 122 ft | 3 kts | 344° |
| 2026-05-05 11:42 | 33.94737 | -118.40936 | 126 ft | 4 kts | 305° |
| 2026-05-05 11:42 | 33.94746 | -118.40973 | 126 ft | 5 kts | 280° |
| 2026-05-05 11:42 | 33.94744 | -118.41025 | 122 ft | 7 kts | 260° |
| 2026-05-05 11:43 | 33.94733 | -118.41089 | 126 ft | 9 kts | 263° |
| 2026-05-05 11:43 | 33.94723 | -118.41168 | 122 ft | 10 kts | 255° |
| 2026-05-05 11:43 | 33.94693 | -118.41255 | 123 ft | 12 kts | 229° |
| 2026-05-05 11:43 | 33.94612 | -118.41272 | 121 ft | 13 kts | 172° |
| 2026-05-05 11:44 | 33.94515 | -118.41258 | 122 ft | 15 kts | 173° |
| 2026-05-05 11:44 | 33.94406 | -118.41241 | 128 ft | 17 kts | 172° |
| 2026-05-05 11:44 | 33.94286 | -118.41222 | 121 ft | 18 kts | 175° |
| 2026-05-05 11:44 | 33.94154 | -118.41204 | 122 ft | 20 kts | 173° |
| 2026-05-05 11:45 | 33.94009 | -118.41183 | 121 ft | 22 kts | 173° |
| 2026-05-05 11:45 | 33.93906 | -118.41168 | 122 ft | 23 kts | 173° |
| 2026-05-05 11:45 | 33.93791 | -118.41143 | 124 ft | 7 kts | 130° |
| 2026-05-05 11:45 | 33.93770 | -118.41085 | 126 ft | 8 kts | 100° |
| 2026-05-05 11:46 | 33.93775 | -118.41014 | 126 ft | 9 kts | 83° |
| 2026-05-05 11:46 | 33.93783 | -118.40933 | 123 ft | 10 kts | 83° |
| 2026-05-05 11:46 | 33.93793 | -118.40842 | 126 ft | 12 kts | 83° |
| 2026-05-05 11:46 | 33.93803 | -118.40741 | 124 ft | 13 kts | 83° |
| 2026-05-05 11:47 | 33.93815 | -118.40629 | 126 ft | 14 kts | 83° |
| 2026-05-05 11:47 | 33.93828 | -118.40505 | 124 ft | 16 kts | 83° |
| 2026-05-05 11:47 | 33.93842 | -118.40368 | 126 ft | 17 kts | 83° |
| 2026-05-05 11:47 | 33.93858 | -118.40219 | 126 ft | 19 kts | 83° |
| 2026-05-05 11:48 | 33.93891 | -118.39882 | 126 ft | 22 kts | 86° |
| 2026-05-05 11:48 | 33.93911 | -118.39693 | 122 ft | 23 kts | 83° |
| 2026-05-05 11:48 | 33.93931 | -118.39491 | 124 ft | 25 kts | 83° |
| 2026-05-05 11:49 | 33.93952 | -118.39292 | 126 ft | 23 kts | 84° |
| 2026-05-05 11:49 | 33.93970 | -118.39096 | 122 ft | 24 kts | 84° |
| 2026-05-05 11:49 | 33.93990 | -118.38892 | 126 ft | 25 kts | 80° |
| 2026-05-05 11:49 | 33.94012 | -118.38711 | 121 ft | 22 kts | 82° |
| 2026-05-05 11:50 | 33.94030 | -118.38521 | 126 ft | 24 kts | 83° |
| 2026-05-05 11:50 | 33.94049 | -118.38332 | 124 ft | 20 kts | 82° |
| 2026-05-05 11:50 | 33.94068 | -118.38156 | 126 ft | 22 kts | 83° |
| 2026-05-05 11:50 | 33.94063 | -118.38017 | 123 ft | 13 kts | 141° |
| 2026-05-05 11:51 | 33.93990 | -118.38019 | 124 ft | 11 kts | 240° |
| 2026-05-05 11:51 | 33.93973 | -118.38144 | 124 ft | 21 kts | 263° |
| 2026-05-05 11:51 | 33.93932 | -118.38555 | 126 ft | 95 kts | 263° |
| 2026-05-05 11:51 | 33.93815 | -118.39685 | 146 ft | 171 kts | 263° |
| 2026-05-05 11:52 | 33.93699 | -118.41216 | 670 ft | 195 kts | 266° |
| 2026-05-05 11:52 | 33.93593 | -118.42943 | 1072 ft | 220 kts | 264° |
| 2026-05-05 11:52 | 33.93278 | -118.44900 | 1358 ft | 248 kts | 255° |
| 2026-05-05 11:52 | 33.92778 | -118.46895 | 2399 ft | 244 kts | 251° |
| 2026-05-05 11:53 | 33.92170 | -118.48807 | 3350 ft | 247 kts | 243° |
| 2026-05-05 11:53 | 33.91165 | -118.50524 | 4133 ft | 256 kts | 226° |
| 2026-05-05 11:53 | 33.89719 | -118.51851 | 4871 ft | 265 kts | 208° |
| 2026-05-05 11:53 | 33.88032 | -118.52573 | 6138 ft | 248 kts | 190° |
| 2026-05-05 11:54 | 33.86368 | -118.52601 | 7211 ft | 247 kts | 171° |
| 2026-05-05 11:54 | 33.84748 | -118.51710 | 7601 ft | 272 kts | 140° |
| 2026-05-05 11:54 | 33.83696 | -118.49762 | 8125 ft | 288 kts | 105° |
| 2026-05-05 11:54 | 33.83687 | -118.47347 | 8849 ft | 295 kts | 75° |
| 2026-05-05 11:55 | 33.84519 | -118.45084 | 9598 ft | 299 kts | 54° |
| 2026-05-05 11:55 | 33.85884 | -118.43184 | 10343 ft | 304 kts | 45° |
| 2026-05-05 11:55 | 33.87390 | -118.41256 | 10625 ft | 328 kts | 45° |
| 2026-05-05 11:55 | 33.89012 | -118.39199 | 10892 ft | 348 kts | 45° |
| 2026-05-05 11:56 | 33.90707 | -118.37059 | 11507 ft | 356 kts | 45° |
| 2026-05-05 11:56 | 33.92499 | -118.34800 | 12245 ft | 361 kts | 45° |
| 2026-05-05 11:56 | 33.94246 | -118.32597 | 12974 ft | 365 kts | 45° |
| 2026-05-05 11:56 | 33.96058 | -118.30316 | 13689 ft | 370 kts | 46° |
| 2026-05-05 11:57 | 33.97850 | -118.28066 | 14369 ft | 374 kts | 46° |
| 2026-05-05 11:57 | 33.99662 | -118.25789 | 15026 ft | 378 kts | 46° |
| 2026-05-05 11:57 | 34.01538 | -118.23426 | 15688 ft | 383 kts | 46° |
| 2026-05-05 11:57 | 34.03331 | -118.21164 | 16298 ft | 387 kts | 46° |
| 2026-05-05 11:58 | 34.05264 | -118.18721 | 16935 ft | 392 kts | 47° |
| 2026-05-05 11:58 | 34.07159 | -118.16327 | 17524 ft | 396 kts | 47° |
| 2026-05-05 11:58 | 34.09119 | -118.13851 | 18131 ft | 400 kts | 47° |
| 2026-05-05 11:58 | 34.11000 | -118.11469 | 18668 ft | 404 kts | 47° |
| 2026-05-05 11:59 | 34.12803 | -118.08851 | 19210 ft | 407 kts | 57° |
| 2026-05-05 11:59 | 34.14403 | -118.06010 | 19745 ft | 411 kts | 57° |
| 2026-05-05 11:59 | 34.16017 | -118.03142 | 20300 ft | 415 kts | 57° |
| 2026-05-05 11:59 | 34.17643 | -118.00246 | 20826 ft | 418 kts | 57° |
| 2026-05-05 12:00 | 34.19281 | -117.97330 | 21363 ft | 422 kts | 57° |
| 2026-05-05 12:00 | 34.20936 | -117.94385 | 21850 ft | 425 kts | 57° |
| 2026-05-05 12:00 | 34.22606 | -117.91413 | 22361 ft | 429 kts | 57° |
| 2026-05-05 12:00 | 34.24289 | -117.88415 | 22811 ft | 433 kts | 57° |
| 2026-05-05 12:01 | 34.25981 | -117.85398 | 23278 ft | 436 kts | 58° |
| 2026-05-05 12:01 | 34.27688 | -117.82350 | 23745 ft | 439 kts | 58° |
| 2026-05-05 12:01 | 34.29411 | -117.79277 | 24192 ft | 443 kts | 58° |
| 2026-05-05 12:01 | 34.31146 | -117.76180 | 24615 ft | 447 kts | 58° |
| 2026-05-05 12:02 | 34.32894 | -117.73048 | 24977 ft | 453 kts | 58° |
| 2026-05-05 12:02 | 34.34665 | -117.69867 | 25287 ft | 458 kts | 58° |
| 2026-05-05 12:02 | 34.36477 | -117.66661 | 25622 ft | 464 kts | 57° |
| 2026-05-05 12:02 | 34.38358 | -117.63462 | 25939 ft | 469 kts | 56° |
| 2026-05-05 12:03 | 34.40298 | -117.60249 | 26227 ft | 475 kts | 55° |
| 2026-05-05 12:03 | 34.42269 | -117.57017 | 26534 ft | 480 kts | 55° |
| 2026-05-05 12:03 | 34.44258 | -117.53749 | 26826 ft | 484 kts | 55° |
| 2026-05-05 12:03 | 34.46258 | -117.50436 | 27099 ft | 490 kts | 56° |
| 2026-05-05 12:04 | 34.48264 | -117.47081 | 27414 ft | 494 kts | 56° |
| 2026-05-05 12:04 | 34.50286 | -117.43676 | 27715 ft | 499 kts | 56° |
| 2026-05-05 12:04 | 34.52314 | -117.40243 | 27980 ft | 503 kts | 56° |
| 2026-05-05 12:04 | 34.54362 | -117.36782 | 28257 ft | 507 kts | 56° |
| 2026-05-05 12:05 | 34.56426 | -117.33296 | 28516 ft | 511 kts | 56° |
| 2026-05-05 12:05 | 34.58507 | -117.29785 | 28806 ft | 515 kts | 56° |
| 2026-05-05 12:05 | 34.60604 | -117.26242 | 28976 ft | 517 kts | 56° |
| 2026-05-05 12:05 | 34.62681 | -117.22735 | 29006 ft | 508 kts | 56° |
| 2026-05-05 12:06 | 34.66775 | -117.15816 | 28996 ft | 502 kts | 56° |
| 2026-05-05 12:06 | 34.70836 | -117.08922 | 28987 ft | 502 kts | 56° |
| 2026-05-05 12:07 | 34.74893 | -117.02013 | 28981 ft | 502 kts | 56° |
| 2026-05-05 12:07 | 34.78904 | -116.95154 | 28966 ft | 496 kts | 56° |
| 2026-05-05 12:08 | 34.82847 | -116.88422 | 28951 ft | 485 kts | 56° |
| 2026-05-05 12:08 | 34.86753 | -116.81748 | 28943 ft | 484 kts | 56° |
| 2026-05-05 12:09 | 34.90655 | -116.75054 | 28943 ft | 484 kts | 56° |
| 2026-05-05 12:09 | 34.94537 | -116.68336 | 28942 ft | 485 kts | 57° |
| 2026-05-05 12:10 | 34.98360 | -116.61564 | 28940 ft | 485 kts | 57° |
| 2026-05-05 12:10 | 35.00266 | -116.58167 | 28757 ft | 482 kts | 57° |
| 2026-05-05 12:10 | 35.02153 | -116.54800 | 28498 ft | 478 kts | 57° |
| 2026-05-05 12:11 | 35.04024 | -116.51463 | 28255 ft | 475 kts | 57° |
| 2026-05-05 12:11 | 35.05882 | -116.48153 | 28014 ft | 471 kts | 57° |
| 2026-05-05 12:11 | 35.07703 | -116.44908 | 27760 ft | 468 kts | 57° |
| 2026-05-05 12:11 | 35.09539 | -116.41646 | 27510 ft | 465 kts | 56° |
| 2026-05-05 12:12 | 35.11583 | -116.38613 | 27059 ft | 461 kts | 47° |
| 2026-05-05 12:12 | 35.13775 | -116.35777 | 26529 ft | 457 kts | 47° |
| 2026-05-05 12:12 | 35.15958 | -116.32963 | 26013 ft | 453 kts | 47° |
| 2026-05-05 12:12 | 35.18118 | -116.30183 | 25512 ft | 449 kts | 47° |
| 2026-05-05 12:13 | 35.20255 | -116.27429 | 25016 ft | 444 kts | 47° |
| 2026-05-05 12:13 | 35.22368 | -116.24706 | 24534 ft | 439 kts | 47° |
| 2026-05-05 12:13 | 35.24439 | -116.21994 | 24056 ft | 433 kts | 48° |
| 2026-05-05 12:13 | 35.26446 | -116.19284 | 23590 ft | 427 kts | 49° |
| 2026-05-05 12:14 | 35.28401 | -116.16584 | 23132 ft | 421 kts | 50° |
| 2026-05-05 12:14 | 35.30322 | -116.13905 | 22679 ft | 416 kts | 50° |
| 2026-05-05 12:14 | 35.32217 | -116.11260 | 22216 ft | 410 kts | 50° |
| 2026-05-05 12:14 | 35.34095 | -116.08655 | 21749 ft | 406 kts | 49° |
| 2026-05-05 12:15 | 35.35959 | -116.06085 | 21299 ft | 401 kts | 49° |
| 2026-05-05 12:15 | 35.37805 | -116.03549 | 20833 ft | 397 kts | 49° |
| 2026-05-05 12:15 | 35.39018 | -116.01883 | 20529 ft | 394 kts | 49° |
| 2026-05-05 12:15 | 35.40836 | -115.99384 | 20061 ft | 391 kts | 49° |
| 2026-05-05 12:16 | 35.42659 | -115.96873 | 19589 ft | 388 kts | 49° |
| 2026-05-05 12:16 | 35.44445 | -115.94409 | 19123 ft | 385 kts | 49° |
| 2026-05-05 12:16 | 35.46191 | -115.92001 | 18656 ft | 382 kts | 49° |
| 2026-05-05 12:16 | 35.47948 | -115.89578 | 18186 ft | 379 kts | 49° |
| 2026-05-05 12:17 | 35.49690 | -115.87175 | 17727 ft | 376 kts | 49° |
| 2026-05-05 12:17 | 35.51418 | -115.84787 | 17261 ft | 373 kts | 49° |
| 2026-05-05 12:17 | 35.53132 | -115.82416 | 16807 ft | 370 kts | 49° |
| 2026-05-05 12:17 | 35.54829 | -115.80063 | 16364 ft | 366 kts | 49° |
| 2026-05-05 12:18 | 35.56490 | -115.77760 | 16207 ft | 354 kts | 49° |
| 2026-05-05 12:18 | 35.58095 | -115.75533 | 16077 ft | 342 kts | 49° |
| 2026-05-05 12:18 | 35.59651 | -115.73378 | 15842 ft | 334 kts | 49° |
| 2026-05-05 12:18 | 35.61191 | -115.71279 | 15719 ft | 329 kts | 48° |
| 2026-05-05 12:19 | 35.62727 | -115.69214 | 15612 ft | 328 kts | 48° |
| 2026-05-05 12:19 | 35.64273 | -115.67141 | 15447 ft | 327 kts | 48° |
| 2026-05-05 12:19 | 35.65808 | -115.65080 | 15283 ft | 326 kts | 48° |
| 2026-05-05 12:19 | 35.67339 | -115.63019 | 15113 ft | 326 kts | 47° |
| 2026-05-05 12:20 | 35.68862 | -115.60962 | 14950 ft | 325 kts | 48° |
| 2026-05-05 12:20 | 35.70383 | -115.58903 | 14788 ft | 325 kts | 48° |
| 2026-05-05 12:20 | 35.71901 | -115.56851 | 14620 ft | 324 kts | 46° |
| 2026-05-05 12:20 | 35.73610 | -115.55065 | 14458 ft | 323 kts | 33° |
| 2026-05-05 12:21 | 35.75542 | -115.53673 | 14294 ft | 321 kts | 29° |
| 2026-05-05 12:21 | 35.77486 | -115.52317 | 14127 ft | 320 kts | 29° |
| 2026-05-05 12:21 | 35.79420 | -115.50962 | 13967 ft | 320 kts | 29° |
| 2026-05-05 12:21 | 35.81352 | -115.49608 | 13803 ft | 319 kts | 29° |
| 2026-05-05 12:22 | 35.83278 | -115.48261 | 13642 ft | 318 kts | 29° |
| 2026-05-05 12:22 | 35.85204 | -115.46913 | 13480 ft | 318 kts | 29° |
| 2026-05-05 12:22 | 35.87120 | -115.45570 | 13322 ft | 317 kts | 29° |
| 2026-05-05 12:22 | 35.89033 | -115.44225 | 13164 ft | 316 kts | 30° |
| 2026-05-05 12:23 | 35.90941 | -115.42882 | 13007 ft | 315 kts | 29° |
| 2026-05-05 12:23 | 35.92847 | -115.41544 | 12626 ft | 315 kts | 29° |
| 2026-05-05 12:23 | 35.94748 | -115.40216 | 12248 ft | 313 kts | 29° |
| 2026-05-05 12:23 | 35.96638 | -115.38899 | 11890 ft | 311 kts | 29° |
| 2026-05-05 12:24 | 35.98496 | -115.37554 | 11526 ft | 309 kts | 36° |
| 2026-05-05 12:24 | 36.00023 | -115.35726 | 11173 ft | 306 kts | 54° |
| 2026-05-05 12:24 | 36.01003 | -115.33427 | 10854 ft | 301 kts | 73° |
| 2026-05-05 12:24 | 36.01373 | -115.30908 | 10604 ft | 298 kts | 90° |
| 2026-05-05 12:25 | 36.01276 | -115.28367 | 10344 ft | 296 kts | 95° |
| 2026-05-05 12:25 | 36.01149 | -115.25834 | 10087 ft | 295 kts | 95° |
| 2026-05-05 12:25 | 36.01025 | -115.23312 | 9822 ft | 294 kts | 95° |
| 2026-05-05 12:25 | 36.00901 | -115.20795 | 9565 ft | 293 kts | 95° |
| 2026-05-05 12:26 | 36.00777 | -115.18308 | 9394 ft | 284 kts | 95° |
| 2026-05-05 12:26 | 36.00661 | -115.15930 | 9279 ft | 272 kts | 95° |
| 2026-05-05 12:26 | 36.00552 | -115.13677 | 9170 ft | 260 kts | 95° |
| 2026-05-05 12:26 | 36.00447 | -115.11494 | 9070 ft | 248 kts | 96° |
| 2026-05-05 12:27 | 36.00340 | -115.09427 | 8906 ft | 237 kts | 96° |
| 2026-05-05 12:27 | 36.00234 | -115.07424 | 8662 ft | 230 kts | 96° |
| 2026-05-05 12:27 | 36.00132 | -115.05477 | 8446 ft | 225 kts | 96° |
| 2026-05-05 12:27 | 36.00032 | -115.03557 | 8243 ft | 223 kts | 96° |
| 2026-05-05 12:28 | 35.99933 | -115.01654 | 8035 ft | 221 kts | 95° |
| 2026-05-05 12:28 | 35.99873 | -114.99755 | 7782 ft | 221 kts | 93° |
| 2026-05-05 12:28 | 35.99862 | -114.97856 | 7512 ft | 220 kts | 92° |
| 2026-05-05 12:28 | 35.99862 | -114.95969 | 7244 ft | 220 kts | 92° |
| 2026-05-05 12:29 | 35.99896 | -114.94091 | 6967 ft | 219 kts | 83° |
| 2026-05-05 12:29 | 36.00399 | -114.92319 | 6682 ft | 221 kts | 59° |
| 2026-05-05 12:29 | 36.01436 | -114.90928 | 6386 ft | 221 kts | 36° |
| 2026-05-05 12:29 | 36.02815 | -114.90138 | 6085 ft | 220 kts | 13° |
| 2026-05-05 12:30 | 36.04328 | -114.90051 | 5809 ft | 218 kts | 351° |
| 2026-05-05 12:30 | 36.05743 | -114.90672 | 5518 ft | 216 kts | 328° |
| 2026-05-05 12:30 | 36.06854 | -114.91897 | 5233 ft | 214 kts | 306° |
| 2026-05-05 12:30 | 36.07498 | -114.93526 | 4994 ft | 210 kts | 282° |
| 2026-05-05 12:31 | 36.07632 | -114.95308 | 4767 ft | 208 kts | 268° |
| 2026-05-05 12:31 | 36.07632 | -114.97092 | 4504 ft | 207 kts | 268° |
| 2026-05-05 12:31 | 36.07633 | -114.98871 | 4231 ft | 206 kts | 268° |
| 2026-05-05 12:31 | 36.07634 | -115.00639 | 3958 ft | 206 kts | 268° |
| 2026-05-05 12:32 | 36.07637 | -115.02398 | 3687 ft | 204 kts | 268° |
| 2026-05-05 12:32 | 36.07637 | -115.04135 | 3428 ft | 197 kts | 268° |
| 2026-05-05 12:32 | 36.07639 | -115.05766 | 3167 ft | 182 kts | 268° |
| 2026-05-05 12:32 | 36.07640 | -115.07272 | 2929 ft | 169 kts | 267° |
| 2026-05-05 12:33 | 36.07641 | -115.08680 | 2726 ft | 157 kts | 267° |
| 2026-05-05 12:33 | 36.07640 | -115.09976 | 2514 ft | 147 kts | 267° |
| 2026-05-05 12:33 | 36.07641 | -115.11222 | 2318 ft | 144 kts | 267° |
| 2026-05-05 12:33 | 36.07638 | -115.12451 | 2164 ft | 142 kts | 267° |
| 2026-05-05 12:34 | 36.07629 | -115.13609 | 2128 ft | 117 kts | 271° |
| 2026-05-05 12:34 | 36.07642 | -115.14242 | 2123 ft | 41 kts | 270° |
| 2026-05-05 12:34 | 36.07639 | -115.14549 | 2123 ft | 22 kts | 267° |
| 2026-05-05 12:34 | 36.07685 | -115.14652 | 2125 ft | 12 kts | 338° |
| 2026-05-05 12:35 | 36.07706 | -115.14660 | 2122 ft | 2 kts | 347° |
| 2026-05-05 12:35 | 36.07746 | -115.14672 | 2120 ft | 11 kts | 342° |
| 2026-05-05 12:35 | 36.07798 | -115.14699 | 2121 ft | 12 kts | 349° |
| 2026-05-05 12:35 | 36.07844 | -115.14627 | 2118 ft | 8 kts | 92° |
| 2026-05-05 12:36 | 36.07837 | -115.14532 | 2118 ft | 17 kts | 91° |
| 2026-05-05 12:36 | 36.07829 | -115.14390 | 2120 ft | 14 kts | 94° |
| 2026-05-05 12:36 | 36.07826 | -115.14274 | 2118 ft | 14 kts | 91° |
| 2026-05-05 12:36 | 36.07827 | -115.14151 | 2119 ft | 14 kts | 89° |
| 2026-05-05 12:37 | 36.07833 | -115.14038 | 2120 ft | 12 kts | 73° |
| 2026-05-05 12:37 | 36.07874 | -115.13965 | 2122 ft | 10 kts | 46° |
| 2026-05-05 12:37 | 36.07925 | -115.13903 | 2120 ft | 11 kts | 44° |
| 2026-05-05 12:37 | 36.07991 | -115.13863 | 2116 ft | 9 kts | 354° |
| 2026-05-05 12:38 | 36.08032 | -115.13876 | 2114 ft | 2 kts | 344° |
| 2026-05-05 12:38 | 36.08044 | -115.13880 | 2113 ft | 1 kts | 343° |